Time;durP1;ratioP1;P1;durP2;ratioP2;P2;SDS_P1;SDS_P2;PMS_P1;PMS_P2;Temp;Humidity;BMP_temperature;BMP_pressure;BME280_temperature;BME280_humidity;BME280_pressure;Samples;Min_cycle;Max_cycle;Signal;HPM_P1;HPM_P2
2022/11/10 00:01:36;;;;;;;271.98;49.93;;;;;;;;;;1559569;92;21109;-82
2022/11/10 00:04:02;;;;;;;284.27;49.98;;;;;;;;;;1559107;90;20992;-81
2022/11/10 00:06:28;;;;;;;311.75;51.33;;;;;;;;;;1559765;92;21552;-82
2022/11/10 00:08:53;;;;;;;307.90;49.45;;;;;;;;;;1559416;90;22471;-82
2022/11/10 00:11:19;;;;;;;272.52;47.20;;;;;;;;;;1559488;92;21016;-82
2022/11/10 00:19:15;;;;;;;291.73;50.12;;;;;;;;;;1615310;87;21534;-84
2022/11/10 00:21:41;;;;;;;253.18;47.95;;;;;;;;;;1648741;85;20879;-82
2022/11/10 00:24:07;;;;;;;276.82;48.48;;;;;;;;;;1648816;87;20975;-82
2022/11/10 00:26:32;;;;;;;311.98;47.62;;;;;;;;;;1648828;85;21086;-78
2022/11/10 00:28:58;;;;;;;314.42;50.23;;;;;;;;;;1648606;87;21006;-82
2022/11/10 00:31:24;;;;;;;266.23;45.38;;;;;;;;;;1648555;87;20950;-82
2022/11/10 00:33:49;;;;;;;306.90;47.33;;;;;;;;;;1648744;85;20932;-82
2022/11/10 00:36:15;;;;;;;274.18;47.25;;;;;;;;;;1648952;85;21549;-84
2022/11/10 00:38:41;;;;;;;265.57;46.18;;;;;;;;;;1648834;87;21107;-82
2022/11/10 00:41:07;;;;;;;256.27;43.33;;;;;;;;;;1648737;87;20898;-82
2022/11/10 00:43:32;;;;;;;307.90;46.70;;;;;;;;;;1648776;87;21065;-82
2022/11/10 00:45:58;;;;;;;332.32;48.48;;;;;;;;;;1648730;87;20974;-82
2022/11/10 00:48:24;;;;;;;282.32;44.05;;;;;;;;;;1648700;86;20922;-82
2022/11/10 00:50:50;;;;;;;298.30;45.50;;;;;;;;;;1648832;87;21064;-82
2022/11/10 00:53:16;;;;;;;297.95;47.78;;;;;;;;;;1648637;87;21041;-81
2022/11/10 00:55:42;;;;;;;231.10;42.00;;;;;;;;;;1648856;87;20977;-82
2022/11/10 00:58:08;;;;;;;252.03;44.63;;;;;;;;;;1648694;85;21612;-82
2022/11/10 01:00:34;;;;;;;307.62;44.70;;;;;;;;;;1648597;85;21045;-83
2022/11/10 01:03:01;;;;;;;240.77;38.83;;;;;;;;;;1648682;87;21795;-82
2022/11/10 01:05:28;;;;;;;230.40;40.23;;;;;;;;;;1648437;86;20965;-82
2022/11/10 01:07:54;;;;;;;208.35;37.58;;;;;;;;;;1648780;86;21053;-82
2022/11/10 01:10:20;;;;;;;260.85;37.70;;;;;;;;;;1648720;87;20977;-81
2022/11/10 01:12:45;;;;;;;239.00;37.38;;;;;;;;;;1648797;85;20911;-82
2022/11/10 01:15:11;;;;;;;233.28;37.25;;;;;;;;;;1648655;85;21132;-82
2022/11/10 01:17:36;;;;;;;211.20;37.98;;;;;;;;;;1648816;86;20934;-81
2022/11/10 01:20:03;;;;;;;228.65;38.85;;;;;;;;;;1648682;87;20998;-82
2022/11/10 01:22:29;;;;;;;229.63;37.48;;;;;;;;;;1648795;87;21084;-82
2022/11/10 01:24:55;;;;;;;219.28;36.98;;;;;;;;;;1648756;86;21014;-82
2022/11/10 01:27:20;;;;;;;240.87;36.15;;;;;;;;;;1648762;87;21127;-82
2022/11/10 01:29:46;;;;;;;206.55;36.63;;;;;;;;;;1648600;87;20911;-82
2022/11/10 01:32:12;;;;;;;224.35;38.45;;;;;;;;;;1648744;87;21383;-82
2022/11/10 01:34:37;;;;;;;242.72;37.90;;;;;;;;;;1648793;85;20887;-82
2022/11/10 01:37:03;;;;;;;253.77;35.05;;;;;;;;;;1648686;87;21066;-81
2022/11/10 01:39:29;;;;;;;251.45;37.30;;;;;;;;;;1648707;86;21176;-81
2022/11/10 01:41:54;;;;;;;248.55;38.90;;;;;;;;;;1648648;87;22438;-82
2022/11/10 01:44:22;;;;;;;249.88;36.65;;;;;;;;;;1648459;87;20935;-81
2022/11/10 01:46:48;;;;;;;247.93;36.90;;;;;;;;;;1648880;86;21502;-82
2022/11/10 01:49:16;;;;;;;258.63;38.15;;;;;;;;;;1648729;87;20938;-85
2022/11/10 01:51:58;;;;;;;237.05;37.23;;;;;;;;;;1648569;85;21079;-82
2022/11/10 01:54:26;;;;;;;253.32;35.35;;;;;;;;;;1648340;86;20994;-82
2022/11/10 01:56:55;;;;;;;239.65;35.63;;;;;;;;;;1598157;89;21197;-82
2022/11/10 01:59:24;;;;;;;236.60;38.02;;;;;;;;;;1598080;89;21162;-82
2022/11/10 02:01:52;;;;;;;240.47;36.33;;;;;;;;;;1598361;89;21054;-82
2022/11/10 02:04:19;;;;;;;229.65;36.38;;;;;;;;;;1598284;88;21088;-81
2022/11/10 02:06:47;;;;;;;214.88;34.10;;;;;;;;;;1598138;89;21158;-82
2022/11/10 02:09:13;;;;;;;251.42;35.03;;;;;;;;;;1598231;88;21114;-82
2022/11/10 02:11:41;;;;;;;230.43;36.25;;;;;;;;;;1598886;89;20919;-82
2022/11/10 02:14:07;;;;;;;230.27;35.33;;;;;;;;;;1598405;89;21086;-82
2022/11/10 02:16:33;;;;;;;221.65;36.30;;;;;;;;;;1598706;89;21136;-82
2022/11/10 02:19:10;;;;;;;243.30;34.88;;;;;;;;;;1598434;89;21473;-82
2022/11/10 02:21:36;;;;;;;234.07;38.10;;;;;;;;;;1597038;88;21059;-82
2022/11/10 02:24:02;;;;;;;204.45;34.60;;;;;;;;;;1598398;88;21523;-82
2022/11/10 02:26:29;;;;;;;199.07;35.17;;;;;;;;;;1598546;89;20900;-82
2022/11/10 02:28:55;;;;;;;183.97;32.28;;;;;;;;;;1598257;88;21574;-81
2022/11/10 02:31:20;;;;;;;190.97;33.28;;;;;;;;;;1598231;89;21163;-82
2022/11/10 02:33:46;;;;;;;201.92;33.83;;;;;;;;;;1598515;88;20955;-82
2022/11/10 02:36:12;;;;;;;196.47;32.65;;;;;;;;;;1598234;88;21006;-83
2022/11/10 02:38:38;;;;;;;216.60;32.13;;;;;;;;;;1598373;89;20968;-82
2022/11/10 02:41:04;;;;;;;204.70;31.73;;;;;;;;;;1598418;89;21082;-80
2022/11/10 02:43:30;;;;;;;204.70;29.87;;;;;;;;;;1598396;89;20998;-82
2022/11/10 02:45:55;;;;;;;183.97;29.37;;;;;;;;;;1598577;89;21008;-82
2022/11/10 02:48:21;;;;;;;159.03;28.85;;;;;;;;;;1598449;89;21547;-83
2022/11/10 02:50:47;;;;;;;158.90;31.77;;;;;;;;;;1598463;88;21057;-82
2022/11/10 02:53:12;;;;;;;178.42;29.15;;;;;;;;;;1602946;85;21399;-80
2022/11/10 02:55:38;;;;;;;184.75;30.10;;;;;;;;;;1655501;86;20977;-82
2022/11/10 02:58:04;;;;;;;159.30;27.75;;;;;;;;;;1658113;86;20823;-82
2022/11/10 03:00:30;;;;;;;157.40;25.88;;;;;;;;;;1657949;86;21022;-82
2022/11/10 03:02:57;;;;;;;180.42;25.72;;;;;;;;;;1657892;86;20862;-82
2022/11/10 03:05:23;;;;;;;167.47;25.97;;;;;;;;;;1657726;86;21129;-82
2022/11/10 03:07:54;;;;;;;164.25;26.57;;;;;;;;;;1657933;86;21699;-82
2022/11/10 03:10:20;;;;;;;187.95;27.13;;;;;;;;;;1606890;89;21110;-82
2022/11/10 03:12:46;;;;;;;180.57;28.00;;;;;;;;;;1607009;89;21561;-82
2022/11/10 03:15:13;;;;;;;164.77;27.77;;;;;;;;;;1606872;89;21105;-82
2022/11/10 03:17:39;;;;;;;170.00;27.42;;;;;;;;;;1606646;88;21258;-82
2022/11/10 03:20:06;;;;;;;162.97;27.62;;;;;;;;;;1606618;87;21128;-82
2022/11/10 03:22:31;;;;;;;133.70;25.88;;;;;;;;;;1606752;88;21118;-82
2022/11/10 03:24:57;;;;;;;131.05;24.77;;;;;;;;;;1606823;89;21628;-82
2022/11/10 03:27:23;;;;;;;138.52;24.75;;;;;;;;;;1606903;89;20951;-82
2022/11/10 03:29:48;;;;;;;130.87;25.02;;;;;;;;;;1607310;88;21101;-81
2022/11/10 03:32:14;;;;;;;131.72;22.70;;;;;;;;;;1607245;88;20911;-87
2022/11/10 03:34:40;;;;;;;144.97;24.63;;;;;;;;;;1606622;87;20943;-82
2022/11/10 03:37:05;;;;;;;194.17;27.32;;;;;;;;;;1607183;87;21002;-82
2022/11/10 03:39:31;;;;;;;150.53;25.40;;;;;;;;;;1607235;88;20959;-85
2022/11/10 03:41:57;;;;;;;153.42;25.48;;;;;;;;;;1606931;89;21801;-82
2022/11/10 03:44:22;;;;;;;182.45;28.38;;;;;;;;;;1606940;89;21207;-81
2022/11/10 03:46:48;;;;;;;175.68;28.20;;;;;;;;;;1606756;88;21009;-82
2022/11/10 03:49:13;;;;;;;162.43;28.57;;;;;;;;;;1606644;89;20928;-82
2022/11/10 03:51:39;;;;;;;174.75;26.65;;;;;;;;;;1607078;88;21038;-82
2022/11/10 03:54:05;;;;;;;175.45;27.17;;;;;;;;;;1601953;89;21099;-82
2022/11/10 03:56:31;;;;;;;146.30;27.35;;;;;;;;;;1578267;89;20938;-81
2022/11/10 03:58:56;;;;;;;232.47;31.97;;;;;;;;;;1578181;90;21652;-81
2022/11/10 04:01:22;;;;;;;191.18;30.55;;;;;;;;;;1578322;90;21011;-81
2022/11/10 04:03:49;;;;;;;166.03;28.87;;;;;;;;;;1578173;90;21547;-82
2022/11/10 04:08:59;;;;;;;176.82;27.98;;;;;;;;;;1642890;87;21090;-82
2022/11/10 04:16:54;;;;;;;213.47;29.18;;;;;;;;;;1642988;87;20990;-80
2022/11/10 04:19:20;;;;;;;180.72;28.20;;;;;;;;;;1643380;87;21088;-82
2022/11/10 04:21:46;;;;;;;190.82;29.20;;;;;;;;;;1643278;87;21664;-82
2022/11/10 04:24:11;;;;;;;192.00;28.60;;;;;;;;;;1643249;87;20895;-82
2022/11/10 04:26:37;;;;;;;189.55;29.37;;;;;;;;;;1643194;86;21612;-81
2022/11/10 04:29:05;;;;;;;184.57;30.00;;;;;;;;;;1643181;87;20982;-81
2022/11/10 04:31:32;;;;;;;179.10;29.92;;;;;;;;;;1643519;86;21606;-82
2022/11/10 04:33:58;;;;;;;166.90;29.65;;;;;;;;;;1643129;87;21716;-81
2022/11/10 04:36:26;;;;;;;185.30;29.45;;;;;;;;;;1643299;87;20895;-82
2022/11/10 04:38:54;;;;;;;173.17;28.95;;;;;;;;;;1643354;87;21018;-80
2022/11/10 04:41:21;;;;;;;139.37;27.60;;;;;;;;;;1643065;87;21022;-80
2022/11/10 04:43:47;;;;;;;186.85;27.30;;;;;;;;;;1643418;87;21268;-81
2022/11/10 04:46:28;;;;;;;193.22;28.85;;;;;;;;;;1643273;87;20974;-81
2022/11/10 04:48:54;;;;;;;159.52;28.40;;;;;;;;;;1643325;87;21038;-81
2022/11/10 04:51:22;;;;;;;150.32;29.57;;;;;;;;;;1643347;87;21070;-80
2022/11/10 04:53:48;;;;;;;148.68;26.77;;;;;;;;;;1643432;87;21018;-81
2022/11/10 04:56:15;;;;;;;168.57;29.23;;;;;;;;;;1654830;85;21144;-81
2022/11/10 04:58:41;;;;;;;149.35;28.67;;;;;;;;;;1657742;86;21084;-81
2022/11/10 05:01:10;;;;;;;169.82;28.83;;;;;;;;;;1657787;86;21088;-81
2022/11/10 05:03:36;;;;;;;160.67;28.70;;;;;;;;;;1657799;86;21043;-82
2022/11/10 05:06:01;;;;;;;155.75;29.18;;;;;;;;;;1657845;86;21703;-81
2022/11/10 05:08:27;;;;;;;165.40;30.02;;;;;;;;;;1638514;86;21094;-80
2022/11/10 05:10:53;;;;;;;172.13;28.15;;;;;;;;;;1657930;86;21427;-81
2022/11/10 05:13:18;;;;;;;209.62;30.40;;;;;;;;;;1657908;86;20926;-80
2022/11/10 05:15:44;;;;;;;173.97;30.45;;;;;;;;;;1657494;86;21585;-81
2022/11/10 05:18:12;;;;;;;137.47;31.87;;;;;;;;;;1657529;85;20954;-82
2022/11/10 05:20:37;;;;;;;157.00;30.88;;;;;;;;;;1606535;89;21951;-83
2022/11/10 05:25:47;;;;;;;154.57;30.72;;;;;;;;;;1606335;89;21125;-82
2022/11/10 05:28:15;;;;;;;160.32;33.75;;;;;;;;;;1605810;89;21010;-80
2022/11/10 05:30:41;;;;;;;179.30;34.50;;;;;;;;;;1585960;89;20923;-82
2022/11/10 05:33:06;;;;;;;183.57;35.23;;;;;;;;;;1606638;88;21103;-83
2022/11/10 05:35:33;;;;;;;206.68;36.65;;;;;;;;;;1606409;88;20907;-80
2022/11/10 05:37:59;;;;;;;164.05;36.38;;;;;;;;;;1606814;89;21615;-83
2022/11/10 05:40:25;;;;;;;175.12;35.00;;;;;;;;;;1607009;88;20964;-81
2022/11/10 05:42:54;;;;;;;169.72;36.70;;;;;;;;;;1606855;88;21077;-82
2022/11/10 05:45:22;;;;;;;209.07;35.33;;;;;;;;;;1606558;88;21061;-81
2022/11/10 05:47:48;;;;;;;177.93;38.63;;;;;;;;;;1606660;89;21195;-82
2022/11/10 05:50:14;;;;;;;188.60;37.85;;;;;;;;;;1606839;87;21176;-81
2022/11/10 05:52:46;;;;;;;198.23;40.15;;;;;;;;;;1606977;88;21538;-82
2022/11/10 05:55:12;;;;;;;215.50;39.35;;;;;;;;;;1556893;91;21178;-82
2022/11/10 05:57:43;;;;;;;206.95;39.65;;;;;;;;;;1515671;94;21155;-81
2022/11/10 06:00:10;;;;;;;215.35;39.10;;;;;;;;;;1517258;93;21291;-82
2022/11/10 06:02:36;;;;;;;199.75;37.80;;;;;;;;;;1532547;92;21621;-82
2022/11/10 06:05:03;;;;;;;217.85;41.05;;;;;;;;;;1542308;93;20925;-82
2022/11/10 06:07:28;;;;;;;237.85;40.20;;;;;;;;;;1541720;91;21090;-81
2022/11/10 06:09:54;;;;;;;233.65;39.83;;;;;;;;;;1542159;91;21033;-82
2022/11/10 06:12:20;;;;;;;226.47;39.73;;;;;;;;;;1541679;91;20992;-82
2022/11/10 06:14:46;;;;;;;265.30;42.85;;;;;;;;;;1546153;91;21153;-81
2022/11/10 06:17:13;;;;;;;225.57;40.30;;;;;;;;;;1573773;90;21039;-82
2022/11/10 06:19:38;;;;;;;289.87;42.85;;;;;;;;;;1577501;90;21154;-83
2022/11/10 06:22:04;;;;;;;258.02;41.83;;;;;;;;;;1577959;89;21168;-83
2022/11/10 06:24:30;;;;;;;244.13;43.28;;;;;;;;;;1585110;87;21661;-83
2022/11/10 06:26:55;;;;;;;216.02;42.53;;;;;;;;;;1616081;87;20884;-83
2022/11/10 06:29:21;;;;;;;236.52;39.78;;;;;;;;;;1618704;88;20913;-84
2022/11/10 06:31:47;;;;;;;272.45;44.63;;;;;;;;;;1618579;88;21050;-84
2022/11/10 06:34:12;;;;;;;234.57;42.48;;;;;;;;;;1620251;88;21086;-89
2022/11/10 06:36:39;;;;;;;284.67;42.65;;;;;;;;;;1620945;88;20967;-89
2022/11/10 06:39:05;;;;;;;233.55;36.68;;;;;;;;;;1620556;86;21070;-89
2022/11/10 06:41:32;;;;;;;227.78;37.63;;;;;;;;;;1620976;87;20960;-87
2022/11/10 06:43:58;;;;;;;242.65;43.65;;;;;;;;;;1620396;88;21249;-90
2022/11/10 06:46:23;;;;;;;274.42;41.08;;;;;;;;;;1620894;88;21100;-95
2022/11/10 06:48:49;;;;;;;240.60;39.08;;;;;;;;;;1619281;88;20873;-90
2022/11/10 06:51:15;;;;;;;229.20;37.93;;;;;;;;;;1625447;86;20943;-89
2022/11/10 06:53:41;;;;;;;279.60;38.45;;;;;;;;;;1670753;85;20895;-89
2022/11/10 06:56:10;;;;;;;227.82;38.25;;;;;;;;;;1711835;83;20984;-86
2022/11/10 06:58:38;;;;;;;277.75;39.73;;;;;;;;;;1638918;84;21101;-88
2022/11/10 07:01:26;;;;;;;;;;;;;;;;;;;;;
2022/11/10 07:03:45;;;;;;;;;;;;;;;;;;;;;
2022/11/10 07:06:08;;;;;;;242.00;39.42;;;;;;;;;;1569566;89;21176;-88
2022/11/10 07:08:37;;;;;;;211.50;35.17;;;;;;;;;;1528542;92;21154;-90
2022/11/10 07:11:02;;;;;;;275.85;38.33;;;;;;;;;;1524524;92;21198;-88
2022/11/10 07:13:28;;;;;;;232.85;37.60;;;;;;;;;;1522748;92;21420;-89
2022/11/10 07:15:54;;;;;;;222.00;33.02;;;;;;;;;;1517824;91;21022;-87
2022/11/10 07:18:20;;;;;;;190.35;31.27;;;;;;;;;;1521976;92;20954;-90
2022/11/10 07:20:45;;;;;;;202.45;35.08;;;;;;;;;;1540949;91;20892;-90
2022/11/10 07:23:11;;;;;;;212.30;35.28;;;;;;;;;;1543501;91;21033;-90
2022/11/10 07:25:38;;;;;;;184.65;31.48;;;;;;;;;;1539930;91;21078;-91
2022/11/10 07:28:11;;;;;;;202.20;31.52;;;;;;;;;;1534576;91;21626;-93
2022/11/10 07:30:40;;;;;;;197.72;32.83;;;;;;;;;;1483986;94;21701;-94
2022/11/10 07:33:14;;;;;;;169.55;30.82;;;;;;;;;;1491474;94;21256;-93
2022/11/10 07:35:43;;;;;;;158.68;32.60;;;;;;;;;;1450091;97;21369;-95
2022/11/10 07:38:12;;;;;;;167.85;32.05;;;;;;;;;;1400356;98;21309;-91
2022/11/10 07:40:38;;;;;;;203.77;32.80;;;;;;;;;;1378280;101;21153;-94
2022/11/10 07:43:06;;;;;;;201.55;32.45;;;;;;;;;;1418478;99;21122;-95
2022/11/10 07:45:34;;;;;;;175.30;31.35;;;;;;;;;;1419524;99;21101;-96
2022/11/10 07:48:04;;;;;;;164.80;31.75;;;;;;;;;;1416932;99;21863;-95
2022/11/10 07:50:32;;;;;;;171.40;32.73;;;;;;;;;;1416641;99;21187;-96
2022/11/10 07:53:22;;;;;;;206.28;34.35;;;;;;;;;;1416811;101;21131;-95
2022/11/10 07:55:59;;;;;;;205.90;36.85;;;;;;;;;;1386681;100;21142;-95
2022/11/10 07:58:24;;;;;;;174.72;31.75;;;;;;;;;;1341053;105;21173;-95
2022/11/10 08:00:52;;;;;;;158.15;31.93;;;;;;;;;;1358519;104;21234;-95
2022/11/10 08:03:23;;;;;;;150.53;31.40;;;;;;;;;;1346214;105;21335;-96
2022/11/10 08:05:52;;;;;;;163.77;35.78;;;;;;;;;;1323966;105;21167;-94
2022/11/10 08:08:25;;;;;;;156.35;30.88;;;;;;;;;;1301945;107;21568;-95
2022/11/10 08:10:53;;;;;;;143.25;33.60;;;;;;;;;;1318942;107;21318;-94
2022/11/10 08:13:19;;;;;;;135.30;31.48;;;;;;;;;;1355579;104;21165;-95
2022/11/10 08:15:57;;;;;;;120.25;28.98;;;;;;;;;;1345545;103;21175;-91
2022/11/10 08:18:23;;;;;;;129.40;29.95;;;;;;;;;;1344391;105;21231;-93
2022/11/10 08:21:05;;;;;;;;;;;;;;;;;;;;;
2022/11/10 09:23:54;;;;;;;108.37;29.67;;;;;;;;;;1368945;103;21799;-93
2022/11/10 09:35:05;;;;;;;;;;;;;;;;;;;;;
2022/11/10 09:40:16;;;;;;;;;;;;;;;;;;;;;
2022/11/10 09:42:49;;;;;;;;;;;;;;;;;;;;;
2022/11/10 09:45:23;;;;;;;95.28;30.70;;;;;;;;;;1292754;109;21746;-92
2022/11/10 09:51:04;;;;;;;92.02;29.87;;;;;;;;;;1243202;115;21319;-90
2022/11/10 09:55:06;;;;;;;113.72;31.65;;;;;;;;;;1229653;115;21718;-90
2022/11/10 10:09:33;;;;;;;79.22;28.17;;;;;;;;;;1227956;115;21250;-96
2022/11/10 10:56:20;;;;;;;93.12;34.30;;;;;;;;;;1258647;112;21314;-92
2022/11/10 10:59:19;;;;;;;;;;;;;;;;;;;;;
2022/11/10 11:04:41;;;;;;;98.58;34.83;;;;;;;;;;1239807;115;21239;-91
2022/11/10 11:07:40;;;;;;;;;;;;;;;;;;;;;
2022/11/10 11:10:02;;;;;;;74.35;27.80;;;;;;;;;;1225252;112;21304;-91
2022/11/10 11:12:33;;;;;;;78.97;29.82;;;;;;;;;;1218263;116;21195;-92
2022/11/10 11:18:20;;;;;;;70.30;26.20;;;;;;;;;;1188270;116;21721;-90
2022/11/10 11:24:28;;;;;;;83.62;27.67;;;;;;;;;;1121770;125;21771;-92
2022/11/10 11:27:10;;;;;;;77.20;25.85;;;;;;;;;;1118531;128;21237;-89
2022/11/10 11:29:51;;;;;;;77.08;27.00;;;;;;;;;;1117563;127;21273;-91
2022/11/10 11:32:40;;;;;;;81.35;30.40;;;;;;;;;;1108644;127;21332;-90
2022/11/10 11:35:43;;;;;;;82.92;29.07;;;;;;;;;;1139865;122;21405;-91
2022/11/10 11:38:14;;;;;;;99.42;30.23;;;;;;;;;;1185553;121;21257;-91
2022/11/10 11:40:50;;;;;;;78.22;29.40;;;;;;;;;;1186543;117;22008;-91
2022/11/10 11:43:38;;;;;;;84.65;29.57;;;;;;;;;;1235748;114;21318;-92
2022/11/10 11:46:19;;;;;;;92.55;29.55;;;;;;;;;;1244427;114;21250;-90
2022/11/10 11:49:03;;;;;;;84.42;29.40;;;;;;;;;;1240086;114;21650;-91
2022/11/10 11:51:51;;;;;;;82.82;27.95;;;;;;;;;;1238151;115;21281;-91
2022/11/10 11:54:26;;;;;;;82.47;28.07;;;;;;;;;;1252338;109;21232;-92
2022/11/10 11:56:56;;;;;;;81.72;27.07;;;;;;;;;;1315506;107;21270;-92
2022/11/10 11:59:28;;;;;;;89.77;29.12;;;;;;;;;;1300599;105;21722;-92
2022/11/10 12:05:28;;;;;;;82.72;24.32;;;;;;;;;;1371906;102;21157;-91
2022/11/10 12:08:22;;;;;;;75.17;22.77;;;;;;;;;;1330750;107;21222;-90
2022/11/10 12:11:01;;;;;;;;;;;;;;;;;;1331539;107;21225;-91
2022/11/10 12:13:53;;;;;;;70.12;24.32;;;;;;;;;;1360551;103;20267;-93
2022/11/10 12:16:28;;;;;;;68.35;23.20;;;;;;;;;;1375179;104;21268;-90
2022/11/10 12:19:01;;;;;;;66.00;22.13;;;;;;;;;;1357282;105;21220;-91
2022/11/10 12:21:53;;;;;;;55.53;20.57;;;;;;;;;;1376346;103;21125;-91
2022/11/10 12:24:37;;;;;;;61.05;20.32;;;;;;;;;;1377688;103;21214;-90
2022/11/10 12:27:13;;;;;;;49.33;19.35;;;;;;;;;;1357519;104;21351;-91
2022/11/10 12:29:55;;;;;;;55.35;21.10;;;;;;;;;;1358257;102;21244;-94
2022/11/10 12:32:25;;;;;;;58.83;22.37;;;;;;;;;;1363607;104;21196;-92
2022/11/10 12:35:03;;;;;;;59.27;21.77;;;;;;;;;;1352704;104;21202;-90
2022/11/10 12:37:50;;;;;;;61.70;22.10;;;;;;;;;;1351029;105;21315;-93
2022/11/10 12:40:19;;;;;;;70.12;23.30;;;;;;;;;;1388438;100;21158;-93
2022/11/10 12:42:58;;;;;;;68.78;23.47;;;;;;;;;;1331735;105;21576;-90
2022/11/10 12:45:28;;;;;;;63.23;23.12;;;;;;;;;;1328978;105;21202;-95
2022/11/10 12:47:54;;;;;;;49.63;20.23;;;;;;;;;;1335217;105;21254;-90
2022/11/10 12:50:36;;;;;;;50.12;19.10;;;;;;;;;;1338417;105;21757;-89
2022/11/10 12:53:25;;;;;;;49.08;19.32;;;;;;;;;;1338192;105;21258;-91
2022/11/10 12:56:03;;;;;;;62.35;22.13;;;;;;;;;;1343473;104;21100;-92
2022/11/10 12:58:29;;;;;;;66.60;24.37;;;;;;;;;;1355939;104;21298;-91
2022/11/10 13:01:04;;;;;;;83.35;27.00;;;;;;;;;;1358896;102;21121;-91
2022/11/10 13:03:35;;;;;;;71.28;23.32;;;;;;;;;;1424118;96;21332;-88
2022/11/10 13:06:04;;;;;;;52.00;20.23;;;;;;;;;;1427718;98;21116;-88
2022/11/10 13:08:33;;;;;;;47.08;18.98;;;;;;;;;;1437221;94;21144;-90
2022/11/10 13:11:08;;;;;;;43.65;17.80;;;;;;;;;;1483910;94;21146;-93
2022/11/10 13:13:40;;;;;;;67.12;21.40;;;;;;;;;;1471681;94;21190;-93
2022/11/10 13:16:08;;;;;;;68.78;25.08;;;;;;;;;;1485910;94;22045;-90
2022/11/10 13:18:38;;;;;;;49.90;19.98;;;;;;;;;;1486919;94;21768;-89
2022/11/10 13:21:04;;;;;;;44.10;16.80;;;;;;;;;;1489017;94;21090;-90
2022/11/10 13:23:45;;;;;;;42.70;16.40;;;;;;;;;;1478027;95;21037;-89
2022/11/10 13:26:14;;;;;;;45.23;17.23;;;;;;;;;;1486838;94;21167;-90
2022/11/10 13:28:50;;;;;;;42.48;17.52;;;;;;;;;;1475439;94;21170;-90
2022/11/10 13:31:31;;;;;;;52.95;18.95;;;;;;;;;;1516375;92;21480;-91
2022/11/10 13:34:11;;;;;;;43.78;16.52;;;;;;;;;;1529485;91;21011;-87
2022/11/10 13:36:40;;;;;;;65.32;22.98;;;;;;;;;;1528234;91;21141;-91
2022/11/10 13:39:24;;;;;;;48.35;17.82;;;;;;;;;;1477196;93;21190;-90
2022/11/10 13:41:59;;;;;;;54.13;18.42;;;;;;;;;;1519555;92;22188;-90
2022/11/10 13:44:40;;;;;;;44.75;17.20;;;;;;;;;;1514416;92;21074;-91
2022/11/10 13:47:10;;;;;;;36.88;14.80;;;;;;;;;;1510773;92;21603;-92
2022/11/10 13:50:03;;;;;;;49.77;17.48;;;;;;;;;;1514571;92;21126;-92
2022/11/10 13:52:47;;;;;;;56.15;19.32;;;;;;;;;;1513823;92;21142;-92
2022/11/10 13:55:40;;;;;;;45.90;17.00;;;;;;;;;;1511933;92;21248;-91
2022/11/10 13:58:11;;;;;;;48.65;17.82;;;;;;;;;;1508201;92;21044;-89
2022/11/10 14:00:37;;;;;;;47.75;17.50;;;;;;;;;;1512798;92;21246;-92
2022/11/10 14:03:05;;;;;;;44.77;15.88;;;;;;;;;;1535613;89;20919;-93
2022/11/10 14:05:37;;;;;;;41.25;15.23;;;;;;;;;;1534484;92;21203;-92
2022/11/10 14:08:13;;;;;;;41.75;16.32;;;;;;;;;;1540919;91;21889;-92
2022/11/10 14:10:57;;;;;;;35.30;13.68;;;;;;;;;;1548533;90;21095;-92
2022/11/10 14:13:39;;;;;;;36.73;13.40;;;;;;;;;;1493709;95;21615;-91
2022/11/10 14:16:11;;;;;;;40.20;14.20;;;;;;;;;;1501676;95;21746;-91
2022/11/10 14:18:42;;;;;;;37.33;14.33;;;;;;;;;;1479847;97;21213;-92
2022/11/10 14:21:11;;;;;;;41.48;16.25;;;;;;;;;;1504527;93;21092;-91
2022/11/10 14:23:49;;;;;;;45.20;16.25;;;;;;;;;;1507178;93;21229;-92
2022/11/10 14:26:33;;;;;;;38.88;14.45;;;;;;;;;;1508946;92;21117;-90
2022/11/10 14:29:19;;;;;;;40.43;15.05;;;;;;;;;;1505664;92;21659;-91
2022/11/10 14:31:45;;;;;;;35.00;14.58;;;;;;;;;;1548543;90;21093;-92
2022/11/10 14:34:16;;;;;;;41.15;14.63;;;;;;;;;;1554111;90;21478;-91
2022/11/10 14:36:54;;;;;;;42.08;16.35;;;;;;;;;;1553494;90;21652;-92
2022/11/10 14:39:23;;;;;;;48.68;18.87;;;;;;;;;;1560992;90;21193;-91
2022/11/10 14:41:51;;;;;;;44.53;15.78;;;;;;;;;;1569740;91;21157;-90
2022/11/10 14:44:25;;;;;;;45.58;15.00;;;;;;;;;;1581362;90;21221;-92
2022/11/10 14:46:50;;;;;;;50.05;17.85;;;;;;;;;;1582928;89;21657;-91
2022/11/10 14:49:25;;;;;;;46.15;17.42;;;;;;;;;;1580559;89;21088;-93
2022/11/10 14:51:54;;;;;;;42.27;15.65;;;;;;;;;;1577467;90;21704;-93
2022/11/10 14:54:25;;;;;;;46.73;15.90;;;;;;;;;;1544875;92;21607;-93
2022/11/10 14:56:52;;;;;;;54.20;18.27;;;;;;;;;;1507960;93;21143;-95
2022/11/10 14:59:21;;;;;;;53.33;17.85;;;;;;;;;;1496683;95;21200;-90
2022/11/10 15:01:53;;;;;;;46.63;18.40;;;;;;;;;;1496743;95;21725;-90
2022/11/10 15:04:25;;;;;;;49.63;18.57;;;;;;;;;;1467927;97;21535;-93
2022/11/10 15:06:51;;;;;;;56.42;20.08;;;;;;;;;;1466736;96;21161;-94
2022/11/10 15:12:24;;;;;;;57.20;20.52;;;;;;;;;;1493045;96;21139;-91
2022/11/10 15:14:58;;;;;;;66.53;25.05;;;;;;;;;;1495794;94;21107;-93
2022/11/10 15:17:45;;;;;;;61.85;21.07;;;;;;;;;;1516203;94;21691;-92
2022/11/10 15:20:29;;;;;;;58.65;20.62;;;;;;;;;;1516374;93;21123;-93
2022/11/10 15:23:02;;;;;;;61.95;22.00;;;;;;;;;;1516520;93;21096;-93
2022/11/10 15:25:40;;;;;;;76.35;23.30;;;;;;;;;;1516755;94;21558;-92
2022/11/10 15:28:14;;;;;;;108.27;36.33;;;;;;;;;;1479953;95;21136;-90
2022/11/10 15:30:51;;;;;;;121.05;36.08;;;;;;;;;;1484824;93;21148;-92
2022/11/10 15:33:20;;;;;;;104.32;34.53;;;;;;;;;;1461762;95;21081;-90
2022/11/10 15:35:46;;;;;;;113.60;35.70;;;;;;;;;;1459144;96;21176;-90
2022/11/10 15:38:28;;;;;;;102.58;32.78;;;;;;;;;;1480986;95;21118;-92
2022/11/10 15:41:14;;;;;;;109.70;32.13;;;;;;;;;;1464892;95;21157;-92
2022/11/10 15:43:40;;;;;;;111.85;29.55;;;;;;;;;;1434775;98;21112;-91
2022/11/10 15:46:18;;;;;;;89.90;29.77;;;;;;;;;;1456946;97;21195;-90
2022/11/10 15:48:47;;;;;;;99.42;29.18;;;;;;;;;;1393519;101;21231;-93
2022/11/10 15:51:14;;;;;;;92.65;31.15;;;;;;;;;;1394027;101;21209;-92
2022/11/10 15:53:43;;;;;;;103.00;32.93;;;;;;;;;;1431778;98;21091;-92
2022/11/10 15:56:13;;;;;;;88.95;30.05;;;;;;;;;;1452796;97;21569;-91
2022/11/10 15:58:39;;;;;;;96.87;31.50;;;;;;;;;;1483467;96;21084;-89
2022/11/10 16:01:04;;;;;;;92.57;28.83;;;;;;;;;;1470866;95;21166;-90
2022/11/10 16:03:32;;;;;;;90.45;29.60;;;;;;;;;;1506610;94;21120;-90
2022/11/10 16:06:01;;;;;;;96.80;30.57;;;;;;;;;;1492760;94;21231;-91
2022/11/10 16:08:26;;;;;;;92.75;28.32;;;;;;;;;;1485697;96;21126;-91
2022/11/10 16:10:54;;;;;;;90.00;30.10;;;;;;;;;;1475038;97;21030;-91
2022/11/10 16:13:29;;;;;;;92.70;29.07;;;;;;;;;;1474107;97;21109;-90
2022/11/10 16:15:55;;;;;;;85.70;28.85;;;;;;;;;;1458909;97;21136;-91
2022/11/10 16:18:23;;;;;;;85.35;29.18;;;;;;;;;;1465801;96;21091;-91
2022/11/10 16:20:50;;;;;;;85.87;29.12;;;;;;;;;;1466800;96;21210;-91
2022/11/10 16:23:16;;;;;;;82.55;28.17;;;;;;;;;;1465407;96;21143;-92
2022/11/10 16:25:43;;;;;;;78.55;27.45;;;;;;;;;;1495307;91;21117;-91
2022/11/10 16:28:10;;;;;;;83.33;28.52;;;;;;;;;;1597270;89;21566;-91
2022/11/10 16:30:41;;;;;;;85.57;27.37;;;;;;;;;;1597586;87;21530;-91
2022/11/10 16:35:48;;;;;;;86.32;26.95;;;;;;;;;;1550521;90;21121;-95
2022/11/10 16:38:21;;;;;;;71.15;24.87;;;;;;;;;;1471671;97;21085;-91
2022/11/10 16:41:01;;;;;;;86.37;26.02;;;;;;;;;;1471433;96;21929;-90
2022/11/10 16:43:31;;;;;;;66.45;24.82;;;;;;;;;;1471394;97;21300;-90
2022/11/10 16:46:01;;;;;;;71.15;23.47;;;;;;;;;;1471939;97;21125;-91
2022/11/10 16:48:32;;;;;;;71.33;23.90;;;;;;;;;;1419441;99;21147;-89
2022/11/10 16:53:29;;;;;;;67.50;23.30;;;;;;;;;;1432462;99;21177;-91
2022/11/10 16:56:04;;;;;;;78.62;22.65;;;;;;;;;;1407654;100;21236;-92
2022/11/10 16:58:32;;;;;;;80.55;24.02;;;;;;;;;;1375071;104;21153;-91
2022/11/10 17:01:00;;;;;;;76.45;24.43;;;;;;;;;;1374880;102;21225;-91
2022/11/10 17:03:36;;;;;;;79.17;24.37;;;;;;;;;;1374810;102;21221;-90
2022/11/10 17:06:04;;;;;;;77.00;25.85;;;;;;;;;;1354743;104;21210;-91
2022/11/10 17:08:35;;;;;;;68.55;23.45;;;;;;;;;;1381136;101;21276;-91
2022/11/10 17:11:11;;;;;;;78.40;25.75;;;;;;;;;;1413476;100;21174;-91
2022/11/10 17:13:44;;;;;;;83.75;25.57;;;;;;;;;;1372918;103;21250;-91
2022/11/10 17:16:22;;;;;;;86.37;28.50;;;;;;;;;;1356420;103;21097;-91
2022/11/10 17:29:06;;;;;;;83.72;27.90;;;;;;;;;;1364334;105;21245;-91
2022/11/10 17:31:38;;;;;;;86.30;27.45;;;;;;;;;;1359555;104;21226;-90
2022/11/10 17:34:16;;;;;;;84.72;28.02;;;;;;;;;;1367121;103;21064;-91